sensor_id;sensor_type;location;lat;lon;timestamp;P1;durP1;ratioP1;P2;durP2;ratioP2
69463;SDS011;56665;41.106;16.688;2023-06-24T00:01:18;10.00;;;4.10;;
69463;SDS011;56665;41.106;16.688;2023-06-24T00:04:22;11.73;;;4.15;;
69463;SDS011;56665;41.106;16.688;2023-06-24T00:07:26;11.57;;;4.63;;
69463;SDS011;56665;41.106;16.688;2023-06-24T00:10:30;9.80;;;4.43;;
69463;SDS011;56665;41.106;16.688;2023-06-24T00:13:34;8.82;;;4.05;;
69463;SDS011;56665;41.106;16.688;2023-06-24T00:16:38;15.18;;;4.72;;
69463;SDS011;56665;41.106;16.688;2023-06-24T00:19:42;10.90;;;4.18;;
69463;SDS011;56665;41.106;16.688;2023-06-24T00:22:47;10.57;;;4.60;;
69463;SDS011;56665;41.106;16.688;2023-06-24T00:25:52;8.80;;;4.80;;
69463;SDS011;56665;41.106;16.688;2023-06-24T00:28:56;7.60;;;4.63;;
69463;SDS011;56665;41.106;16.688;2023-06-24T00:31:59;9.65;;;4.10;;
69463;SDS011;56665;41.106;16.688;2023-06-24T00:35:03;11.05;;;4.32;;
69463;SDS011;56665;41.106;16.688;2023-06-24T00:38:07;9.20;;;4.03;;
69463;SDS011;56665;41.106;16.688;2023-06-24T00:41:11;8.75;;;3.83;;
69463;SDS011;56665;41.106;16.688;2023-06-24T00:44:14;10.98;;;4.78;;
69463;SDS011;56665;41.106;16.688;2023-06-24T00:47:19;7.30;;;3.90;;
69463;SDS011;56665;41.106;16.688;2023-06-24T00:50:22;8.18;;;4.20;;
69463;SDS011;56665;41.106;16.688;2023-06-24T00:53:26;10.50;;;3.72;;
69463;SDS011;56665;41.106;16.688;2023-06-24T00:56:34;9.10;;;4.10;;
69463;SDS011;56665;41.106;16.688;2023-06-24T00:59:41;7.68;;;4.50;;
69463;SDS011;56665;41.106;16.688;2023-06-24T01:02:47;7.07;;;3.58;;
69463;SDS011;56665;41.106;16.688;2023-06-24T01:05:52;10.52;;;4.05;;
69463;SDS011;56665;41.106;16.688;2023-06-24T01:08:58;7.15;;;4.10;;
69463;SDS011;56665;41.106;16.688;2023-06-24T01:12:03;10.13;;;4.22;;
69463;SDS011;56665;41.106;16.688;2023-06-24T01:15:08;7.85;;;4.00;;
69463;SDS011;56665;41.106;16.688;2023-06-24T01:21:33;9.50;;;4.22;;
69463;SDS011;56665;41.106;16.688;2023-06-24T01:35:25;10.40;;;3.65;;
69463;SDS011;56665;41.106;16.688;2023-06-24T01:38:41;8.10;;;3.92;;
69463;SDS011;56665;41.106;16.688;2023-06-24T01:41:53;9.02;;;3.80;;
69463;SDS011;56665;41.106;16.688;2023-06-24T01:45:05;8.88;;;4.20;;
69463;SDS011;56665;41.106;16.688;2023-06-24T01:48:16;6.63;;;4.20;;
69463;SDS011;56665;41.106;16.688;2023-06-24T01:51:26;8.80;;;3.80;;
69463;SDS011;56665;41.106;16.688;2023-06-24T01:54:31;8.67;;;3.53;;
69463;SDS011;56665;41.106;16.688;2023-06-24T01:57:38;9.80;;;4.07;;
69463;SDS011;56665;41.106;16.688;2023-06-24T02:00:45;6.00;;;3.70;;
69463;SDS011;56665;41.106;16.688;2023-06-24T02:03:49;11.48;;;3.78;;
69463;SDS011;56665;41.106;16.688;2023-06-24T02:06:53;8.60;;;3.80;;
69463;SDS011;56665;41.106;16.688;2023-06-24T02:09:58;8.27;;;3.35;;
69463;SDS011;56665;41.106;16.688;2023-06-24T02:13:04;7.53;;;3.83;;
69463;SDS011;56665;41.106;16.688;2023-06-24T02:16:09;9.43;;;3.75;;
69463;SDS011;56665;41.106;16.688;2023-06-24T02:19:14;20.10;;;4.00;;
69463;SDS011;56665;41.106;16.688;2023-06-24T02:22:21;9.88;;;3.65;;
69463;SDS011;56665;41.106;16.688;2023-06-24T02:25:29;8.93;;;3.92;;
69463;SDS011;56665;41.106;16.688;2023-06-24T02:28:34;7.82;;;3.90;;
69463;SDS011;56665;41.106;16.688;2023-06-24T02:31:40;9.30;;;3.40;;
69463;SDS011;56665;41.106;16.688;2023-06-24T02:34:44;6.07;;;3.45;;
69463;SDS011;56665;41.106;16.688;2023-06-24T02:37:47;11.15;;;4.13;;
69463;SDS011;56665;41.106;16.688;2023-06-24T02:40:53;9.85;;;3.83;;
69463;SDS011;56665;41.106;16.688;2023-06-24T02:43:57;9.07;;;4.22;;
69463;SDS011;56665;41.106;16.688;2023-06-24T02:47:01;7.03;;;3.40;;
69463;SDS011;56665;41.106;16.688;2023-06-24T02:50:06;5.88;;;3.20;;
69463;SDS011;56665;41.106;16.688;2023-06-24T02:53:11;7.05;;;3.30;;
69463;SDS011;56665;41.106;16.688;2023-06-24T02:56:17;10.50;;;3.80;;
69463;SDS011;56665;41.106;16.688;2023-06-24T02:59:24;7.72;;;3.58;;
69463;SDS011;56665;41.106;16.688;2023-06-24T03:02:28;6.45;;;3.30;;
69463;SDS011;56665;41.106;16.688;2023-06-24T03:05:34;8.15;;;3.08;;
69463;SDS011;56665;41.106;16.688;2023-06-24T03:08:39;5.57;;;3.33;;
69463;SDS011;56665;41.106;16.688;2023-06-24T03:11:43;5.88;;;3.03;;
69463;SDS011;56665;41.106;16.688;2023-06-24T03:14:50;6.75;;;2.88;;
69463;SDS011;56665;41.106;16.688;2023-06-24T03:17:54;7.10;;;3.10;;
69463;SDS011;56665;41.106;16.688;2023-06-24T03:20:58;11.35;;;3.30;;
69463;SDS011;56665;41.106;16.688;2023-06-24T03:24:05;10.30;;;4.88;;
69463;SDS011;56665;41.106;16.688;2023-06-24T03:27:12;7.72;;;4.00;;
69463;SDS011;56665;41.106;16.688;2023-06-24T03:30:19;12.00;;;4.32;;
69463;SDS011;56665;41.106;16.688;2023-06-24T03:33:23;8.52;;;3.90;;
69463;SDS011;56665;41.106;16.688;2023-06-24T03:36:27;11.07;;;3.63;;
69463;SDS011;56665;41.106;16.688;2023-06-24T03:39:31;11.65;;;4.40;;
69463;SDS011;56665;41.106;16.688;2023-06-24T03:42:35;8.63;;;4.20;;
69463;SDS011;56665;41.106;16.688;2023-06-24T03:45:39;10.63;;;4.43;;
69463;SDS011;56665;41.106;16.688;2023-06-24T03:48:43;12.60;;;5.20;;
69463;SDS011;56665;41.106;16.688;2023-06-24T03:51:47;9.27;;;4.30;;
69463;SDS011;56665;41.106;16.688;2023-06-24T03:54:51;9.63;;;3.85;;
69463;SDS011;56665;41.106;16.688;2023-06-24T03:57:55;8.18;;;3.50;;
69463;SDS011;56665;41.106;16.688;2023-06-24T04:00:59;7.25;;;3.38;;
69463;SDS011;56665;41.106;16.688;2023-06-24T04:04:04;9.30;;;3.90;;
69463;SDS011;56665;41.106;16.688;2023-06-24T04:07:07;11.32;;;4.35;;
69463;SDS011;56665;41.106;16.688;2023-06-24T04:10:12;9.80;;;3.97;;
69463;SDS011;56665;41.106;16.688;2023-06-24T04:13:16;11.38;;;4.20;;
69463;SDS011;56665;41.106;16.688;2023-06-24T04:16:19;8.38;;;3.80;;
69463;SDS011;56665;41.106;16.688;2023-06-24T04:19:23;7.28;;;3.85;;
69463;SDS011;56665;41.106;16.688;2023-06-24T04:22:27;11.38;;;3.67;;
69463;SDS011;56665;41.106;16.688;2023-06-24T04:25:35;8.98;;;3.00;;
69463;SDS011;56665;41.106;16.688;2023-06-24T04:28:39;8.57;;;3.33;;
69463;SDS011;56665;41.106;16.688;2023-06-24T04:31:43;13.27;;;3.60;;
69463;SDS011;56665;41.106;16.688;2023-06-24T04:34:47;16.75;;;4.15;;
69463;SDS011;56665;41.106;16.688;2023-06-24T04:37:50;13.07;;;4.80;;
69463;SDS011;56665;41.106;16.688;2023-06-24T04:40:54;17.30;;;5.22;;
69463;SDS011;56665;41.106;16.688;2023-06-24T04:43:58;17.58;;;5.00;;
69463;SDS011;56665;41.106;16.688;2023-06-24T04:47:01;16.35;;;5.40;;
69463;SDS011;56665;41.106;16.688;2023-06-24T04:50:05;21.08;;;6.32;;
69463;SDS011;56665;41.106;16.688;2023-06-24T04:53:13;24.80;;;5.45;;
69463;SDS011;56665;41.106;16.688;2023-06-24T04:56:16;22.05;;;4.85;;
69463;SDS011;56665;41.106;16.688;2023-06-24T04:59:20;19.80;;;4.65;;
69463;SDS011;56665;41.106;16.688;2023-06-24T05:02:24;22.00;;;4.57;;
69463;SDS011;56665;41.106;16.688;2023-06-24T05:05:28;23.88;;;4.47;;
69463;SDS011;56665;41.106;16.688;2023-06-24T05:08:32;25.38;;;4.32;;
69463;SDS011;56665;41.106;16.688;2023-06-24T05:11:35;22.23;;;5.00;;
69463;SDS011;56665;41.106;16.688;2023-06-24T05:14:39;22.55;;;4.88;;
69463;SDS011;56665;41.106;16.688;2023-06-24T05:17:43;19.08;;;4.50;;
69463;SDS011;56665;41.106;16.688;2023-06-24T05:20:47;21.35;;;4.28;;
69463;SDS011;56665;41.106;16.688;2023-06-24T05:23:50;18.55;;;3.90;;
69463;SDS011;56665;41.106;16.688;2023-06-24T05:26:54;14.10;;;3.70;;
69463;SDS011;56665;41.106;16.688;2023-06-24T05:29:58;13.68;;;3.90;;
69463;SDS011;56665;41.106;16.688;2023-06-24T05:33:02;13.98;;;4.40;;
69463;SDS011;56665;41.106;16.688;2023-06-24T05:36:05;11.90;;;4.43;;
69463;SDS011;56665;41.106;16.688;2023-06-24T05:39:09;10.48;;;3.40;;
69463;SDS011;56665;41.106;16.688;2023-06-24T05:42:14;12.25;;;3.67;;
69463;SDS011;56665;41.106;16.688;2023-06-24T05:45:18;16.15;;;4.13;;
69463;SDS011;56665;41.106;16.688;2023-06-24T05:48:22;12.05;;;3.75;;
69463;SDS011;56665;41.106;16.688;2023-06-24T05:51:25;9.77;;;3.80;;
69463;SDS011;56665;41.106;16.688;2023-06-24T05:54:29;11.95;;;4.07;;
69463;SDS011;56665;41.106;16.688;2023-06-24T05:57:33;13.02;;;3.83;;
69463;SDS011;56665;41.106;16.688;2023-06-24T06:00:37;11.77;;;4.20;;
69463;SDS011;56665;41.106;16.688;2023-06-24T06:03:41;15.52;;;3.78;;
69463;SDS011;56665;41.106;16.688;2023-06-24T06:06:44;11.57;;;3.85;;
69463;SDS011;56665;41.106;16.688;2023-06-24T06:09:48;14.15;;;3.90;;
69463;SDS011;56665;41.106;16.688;2023-06-24T06:12:52;12.55;;;3.80;;
69463;SDS011;56665;41.106;16.688;2023-06-24T06:15:56;16.52;;;4.53;;
69463;SDS011;56665;41.106;16.688;2023-06-24T06:19:01;19.15;;;9.23;;
69463;SDS011;56665;41.106;16.688;2023-06-24T06:22:04;17.73;;;8.18;;
69463;SDS011;56665;41.106;16.688;2023-06-24T06:25:08;19.50;;;4.80;;
69463;SDS011;56665;41.106;16.688;2023-06-24T06:28:13;10.80;;;3.90;;
69463;SDS011;56665;41.106;16.688;2023-06-24T06:31:17;14.77;;;4.47;;
69463;SDS011;56665;41.106;16.688;2023-06-24T06:34:22;12.07;;;4.40;;
69463;SDS011;56665;41.106;16.688;2023-06-24T06:37:25;13.38;;;4.18;;
69463;SDS011;56665;41.106;16.688;2023-06-24T06:40:29;13.35;;;4.97;;
69463;SDS011;56665;41.106;16.688;2023-06-24T06:43:33;11.48;;;4.85;;
69463;SDS011;56665;41.106;16.688;2023-06-24T06:46:37;10.30;;;3.92;;
69463;SDS011;56665;41.106;16.688;2023-06-24T06:49:41;13.45;;;5.22;;
69463;SDS011;56665;41.106;16.688;2023-06-24T06:52:44;13.70;;;5.03;;
69463;SDS011;56665;41.106;16.688;2023-06-24T06:55:48;9.50;;;4.28;;
69463;SDS011;56665;41.106;16.688;2023-06-24T06:58:52;8.65;;;4.32;;
69463;SDS011;56665;41.106;16.688;2023-06-24T07:01:56;11.65;;;4.35;;
69463;SDS011;56665;41.106;16.688;2023-06-24T07:05:00;12.27;;;4.32;;
69463;SDS011;56665;41.106;16.688;2023-06-24T07:08:05;9.55;;;4.53;;
69463;SDS011;56665;41.106;16.688;2023-06-24T07:11:08;6.88;;;4.63;;
69463;SDS011;56665;41.106;16.688;2023-06-24T07:14:12;10.73;;;4.32;;
69463;SDS011;56665;41.106;16.688;2023-06-24T07:17:15;10.38;;;5.13;;
69463;SDS011;56665;41.106;16.688;2023-06-24T07:20:20;9.13;;;4.65;;
69463;SDS011;56665;41.106;16.688;2023-06-24T07:23:24;9.35;;;5.13;;
69463;SDS011;56665;41.106;16.688;2023-06-24T07:26:28;9.60;;;5.43;;
69463;SDS011;56665;41.106;16.688;2023-06-24T07:29:33;11.30;;;5.50;;
69463;SDS011;56665;41.106;16.688;2023-06-24T07:32:36;9.63;;;5.10;;
69463;SDS011;56665;41.106;16.688;2023-06-24T07:35:40;7.97;;;4.97;;
69463;SDS011;56665;41.106;16.688;2023-06-24T07:38:44;9.45;;;5.10;;
69463;SDS011;56665;41.106;16.688;2023-06-24T07:41:48;10.95;;;4.90;;
69463;SDS011;56665;41.106;16.688;2023-06-24T07:44:51;8.60;;;5.40;;
69463;SDS011;56665;41.106;16.688;2023-06-24T07:47:55;7.20;;;4.72;;
69463;SDS011;56665;41.106;16.688;2023-06-24T07:50:59;12.55;;;4.90;;
69463;SDS011;56665;41.106;16.688;2023-06-24T07:54:03;7.75;;;4.50;;
69463;SDS011;56665;41.106;16.688;2023-06-24T07:57:07;11.55;;;4.70;;
69463;SDS011;56665;41.106;16.688;2023-06-24T08:00:11;10.73;;;4.72;;
69463;SDS011;56665;41.106;16.688;2023-06-24T08:03:19;7.78;;;4.68;;
69463;SDS011;56665;41.106;16.688;2023-06-24T08:06:25;10.25;;;4.70;;
69463;SDS011;56665;41.106;16.688;2023-06-24T08:09:30;5.88;;;5.20;;
69463;SDS011;56665;41.106;16.688;2023-06-24T08:12:33;7.97;;;5.28;;
69463;SDS011;56665;41.106;16.688;2023-06-24T08:15:37;10.93;;;5.37;;
69463;SDS011;56665;41.106;16.688;2023-06-24T08:18:41;8.13;;;4.97;;
69463;SDS011;56665;41.106;16.688;2023-06-24T08:21:45;10.35;;;5.57;;
69463;SDS011;56665;41.106;16.688;2023-06-24T08:24:48;8.55;;;5.13;;
69463;SDS011;56665;41.106;16.688;2023-06-24T08:27:52;11.45;;;5.55;;
69463;SDS011;56665;41.106;16.688;2023-06-24T08:30:55;9.10;;;5.53;;
69463;SDS011;56665;41.106;16.688;2023-06-24T08:33:59;7.05;;;5.38;;
69463;SDS011;56665;41.106;16.688;2023-06-24T08:37:05;10.32;;;5.85;;
69463;SDS011;56665;41.106;16.688;2023-06-24T08:40:09;7.00;;;5.35;;
69463;SDS011;56665;41.106;16.688;2023-06-24T08:43:14;8.57;;;5.57;;
69463;SDS011;56665;41.106;16.688;2023-06-24T08:46:17;8.30;;;5.43;;
69463;SDS011;56665;41.106;16.688;2023-06-24T08:49:30;10.65;;;6.07;;
69463;SDS011;56665;41.106;16.688;2023-06-24T08:52:37;10.82;;;5.70;;
69463;SDS011;56665;41.106;16.688;2023-06-24T08:55:43;10.35;;;5.30;;
69463;SDS011;56665;41.106;16.688;2023-06-24T08:58:47;10.32;;;5.68;;
69463;SDS011;56665;41.106;16.688;2023-06-24T09:01:51;8.83;;;5.07;;
69463;SDS011;56665;41.106;16.688;2023-06-24T09:04:55;10.45;;;5.10;;
69463;SDS011;56665;41.106;16.688;2023-06-24T09:07:58;9.25;;;4.53;;
69463;SDS011;56665;41.106;16.688;2023-06-24T09:11:02;12.57;;;5.55;;
69463;SDS011;56665;41.106;16.688;2023-06-24T09:14:06;8.30;;;5.05;;
69463;SDS011;56665;41.106;16.688;2023-06-24T09:17:14;10.80;;;5.00;;
69463;SDS011;56665;41.106;16.688;2023-06-24T09:20:19;7.97;;;4.95;;
69463;SDS011;56665;41.106;16.688;2023-06-24T09:23:25;10.02;;;4.75;;
69463;SDS011;56665;41.106;16.688;2023-06-24T09:26:30;10.25;;;4.90;;
69463;SDS011;56665;41.106;16.688;2023-06-24T09:29:34;7.70;;;4.88;;
69463;SDS011;56665;41.106;16.688;2023-06-24T09:32:39;9.63;;;5.13;;
69463;SDS011;56665;41.106;16.688;2023-06-24T09:35:42;8.65;;;4.60;;
69463;SDS011;56665;41.106;16.688;2023-06-24T09:38:48;10.45;;;5.13;;
69463;SDS011;56665;41.106;16.688;2023-06-24T09:41:53;7.97;;;4.57;;
69463;SDS011;56665;41.106;16.688;2023-06-24T09:44:56;14.10;;;4.93;;
69463;SDS011;56665;41.106;16.688;2023-06-24T09:48:00;9.32;;;4.90;;
69463;SDS011;56665;41.106;16.688;2023-06-24T09:51:05;11.15;;;4.85;;
69463;SDS011;56665;41.106;16.688;2023-06-24T09:54:10;10.38;;;4.90;;
69463;SDS011;56665;41.106;16.688;2023-06-24T09:57:15;10.30;;;5.13;;
69463;SDS011;56665;41.106;16.688;2023-06-24T10:00:24;11.45;;;5.38;;
69463;SDS011;56665;41.106;16.688;2023-06-24T10:03:30;9.95;;;5.20;;
69463;SDS011;56665;41.106;16.688;2023-06-24T10:06:36;11.05;;;5.38;;
69463;SDS011;56665;41.106;16.688;2023-06-24T10:09:39;10.50;;;5.70;;
69463;SDS011;56665;41.106;16.688;2023-06-24T10:12:43;11.25;;;5.60;;
69463;SDS011;56665;41.106;16.688;2023-06-24T10:15:48;11.73;;;6.10;;
69463;SDS011;56665;41.106;16.688;2023-06-24T10:18:52;12.43;;;5.75;;
69463;SDS011;56665;41.106;16.688;2023-06-24T10:22:03;10.70;;;5.38;;
69463;SDS011;56665;41.106;16.688;2023-06-24T10:25:11;11.07;;;5.60;;
69463;SDS011;56665;41.106;16.688;2023-06-24T10:28:15;9.07;;;5.05;;
69463;SDS011;56665;41.106;16.688;2023-06-24T10:31:18;9.85;;;5.40;;
69463;SDS011;56665;41.106;16.688;2023-06-24T10:37:32;10.15;;;5.32;;
69463;SDS011;56665;41.106;16.688;2023-06-24T10:40:37;11.60;;;5.28;;
69463;SDS011;56665;41.106;16.688;2023-06-24T10:43:45;11.93;;;5.22;;
69463;SDS011;56665;41.106;16.688;2023-06-24T10:46:55;9.57;;;5.22;;
69463;SDS011;56665;41.106;16.688;2023-06-24T10:49:59;10.02;;;5.22;;
69463;SDS011;56665;41.106;16.688;2023-06-24T10:53:02;10.80;;;5.93;;
69463;SDS011;56665;41.106;16.688;2023-06-24T10:56:11;9.15;;;5.43;;
69463;SDS011;56665;41.106;16.688;2023-06-24T10:59:15;10.32;;;5.70;;
69463;SDS011;56665;41.106;16.688;2023-06-24T11:02:19;13.05;;;5.78;;
69463;SDS011;56665;41.106;16.688;2023-06-24T11:05:24;10.30;;;5.35;;
69463;SDS011;56665;41.106;16.688;2023-06-24T11:08:28;9.95;;;5.35;;
69463;SDS011;56665;41.106;16.688;2023-06-24T11:11:32;10.88;;;5.38;;
69463;SDS011;56665;41.106;16.688;2023-06-24T11:14:36;9.90;;;5.32;;
69463;SDS011;56665;41.106;16.688;2023-06-24T11:17:41;9.02;;;5.40;;
69463;SDS011;56665;41.106;16.688;2023-06-24T11:20:45;9.38;;;5.25;;
69463;SDS011;56665;41.106;16.688;2023-06-24T11:23:49;9.23;;;5.30;;
69463;SDS011;56665;41.106;16.688;2023-06-24T11:26:54;8.85;;;5.05;;
69463;SDS011;56665;41.106;16.688;2023-06-24T11:29:59;13.40;;;5.47;;
69463;SDS011;56665;41.106;16.688;2023-06-24T11:33:07;13.73;;;5.53;;
69463;SDS011;56665;41.106;16.688;2023-06-24T11:36:11;15.20;;;5.32;;
69463;SDS011;56665;41.106;16.688;2023-06-24T11:39:21;12.70;;;5.55;;
69463;SDS011;56665;41.106;16.688;2023-06-24T11:42:30;12.95;;;5.68;;
69463;SDS011;56665;41.106;16.688;2023-06-24T11:45:47;10.60;;;5.07;;
69463;SDS011;56665;41.106;16.688;2023-06-24T11:48:52;10.45;;;4.97;;
69463;SDS011;56665;41.106;16.688;2023-06-24T11:51:56;11.25;;;5.20;;
69463;SDS011;56665;41.106;16.688;2023-06-24T11:55:00;11.88;;;5.28;;
69463;SDS011;56665;41.106;16.688;2023-06-24T11:58:03;12.88;;;5.35;;
69463;SDS011;56665;41.106;16.688;2023-06-24T12:01:12;11.65;;;5.13;;
69463;SDS011;56665;41.106;16.688;2023-06-24T12:04:16;9.70;;;5.25;;
69463;SDS011;56665;41.106;16.688;2023-06-24T12:07:20;10.50;;;4.88;;
69463;SDS011;56665;41.106;16.688;2023-06-24T12:10:24;11.68;;;5.38;;
69463;SDS011;56665;41.106;16.688;2023-06-24T12:13:28;10.23;;;5.20;;
69463;SDS011;56665;41.106;16.688;2023-06-24T12:16:31;10.32;;;5.38;;
69463;SDS011;56665;41.106;16.688;2023-06-24T12:19:35;13.95;;;5.68;;
69463;SDS011;56665;41.106;16.688;2023-06-24T12:22:39;9.63;;;5.35;;
69463;SDS011;56665;41.106;16.688;2023-06-24T12:25:43;9.82;;;5.15;;
69463;SDS011;56665;41.106;16.688;2023-06-24T12:28:47;9.93;;;4.63;;
69463;SDS011;56665;41.106;16.688;2023-06-24T12:31:50;12.80;;;5.30;;
69463;SDS011;56665;41.106;16.688;2023-06-24T12:34:54;12.65;;;4.80;;
69463;SDS011;56665;41.106;16.688;2023-06-24T12:37:58;10.63;;;5.10;;
69463;SDS011;56665;41.106;16.688;2023-06-24T12:41:02;10.43;;;5.00;;
69463;SDS011;56665;41.106;16.688;2023-06-24T12:44:05;10.50;;;4.60;;
69463;SDS011;56665;41.106;16.688;2023-06-24T12:47:09;10.18;;;5.30;;
69463;SDS011;56665;41.106;16.688;2023-06-24T12:50:13;10.93;;;5.10;;
69463;SDS011;56665;41.106;16.688;2023-06-24T12:53:16;11.02;;;4.63;;
69463;SDS011;56665;41.106;16.688;2023-06-24T12:56:20;15.48;;;4.75;;
69463;SDS011;56665;41.106;16.688;2023-06-24T12:59:24;9.35;;;4.50;;
69463;SDS011;56665;41.106;16.688;2023-06-24T13:02:27;10.52;;;4.32;;
69463;SDS011;56665;41.106;16.688;2023-06-24T13:05:32;12.30;;;4.43;;
69463;SDS011;56665;41.106;16.688;2023-06-24T13:08:36;10.38;;;4.05;;
69463;SDS011;56665;41.106;16.688;2023-06-24T13:11:40;13.93;;;4.57;;
69463;SDS011;56665;41.106;16.688;2023-06-24T13:14:43;13.48;;;4.85;;
69463;SDS011;56665;41.106;16.688;2023-06-24T13:17:47;11.30;;;4.85;;
69463;SDS011;56665;41.106;16.688;2023-06-24T13:20:51;11.50;;;4.70;;
69463;SDS011;56665;41.106;16.688;2023-06-24T13:23:55;12.57;;;5.28;;
69463;SDS011;56665;41.106;16.688;2023-06-24T13:26:59;12.68;;;5.47;;
69463;SDS011;56665;41.106;16.688;2023-06-24T13:30:03;12.02;;;5.47;;
69463;SDS011;56665;41.106;16.688;2023-06-24T13:33:07;12.38;;;5.35;;
69463;SDS011;56665;41.106;16.688;2023-06-24T13:36:12;12.55;;;5.68;;
69463;SDS011;56665;41.106;16.688;2023-06-24T13:39:31;14.25;;;5.60;;
69463;SDS011;56665;41.106;16.688;2023-06-24T13:42:36;11.25;;;5.57;;
69463;SDS011;56665;41.106;16.688;2023-06-24T13:45:39;14.88;;;5.72;;
69463;SDS011;56665;41.106;16.688;2023-06-24T13:48:43;15.40;;;5.20;;
69463;SDS011;56665;41.106;16.688;2023-06-24T13:51:48;12.10;;;5.40;;
69463;SDS011;56665;41.106;16.688;2023-06-24T13:54:52;15.77;;;5.10;;
69463;SDS011;56665;41.106;16.688;2023-06-24T13:57:56;13.15;;;5.00;;
69463;SDS011;56665;41.106;16.688;2023-06-24T14:01:00;10.88;;;5.05;;
69463;SDS011;56665;41.106;16.688;2023-06-24T14:04:03;12.98;;;5.10;;
69463;SDS011;56665;41.106;16.688;2023-06-24T14:07:07;13.38;;;5.68;;
69463;SDS011;56665;41.106;16.688;2023-06-24T14:10:11;15.25;;;5.90;;
69463;SDS011;56665;41.106;16.688;2023-06-24T14:13:15;12.02;;;5.70;;
69463;SDS011;56665;41.106;16.688;2023-06-24T14:16:18;13.45;;;6.05;;
69463;SDS011;56665;41.106;16.688;2023-06-24T14:19:22;15.50;;;6.30;;
69463;SDS011;56665;41.106;16.688;2023-06-24T14:22:26;14.88;;;6.75;;
69463;SDS011;56665;41.106;16.688;2023-06-24T14:25:30;16.67;;;5.97;;
69463;SDS011;56665;41.106;16.688;2023-06-24T14:28:33;13.30;;;6.07;;
69463;SDS011;56665;41.106;16.688;2023-06-24T14:31:37;13.07;;;6.00;;
69463;SDS011;56665;41.106;16.688;2023-06-24T14:34:41;12.15;;;5.93;;
69463;SDS011;56665;41.106;16.688;2023-06-24T14:37:45;12.80;;;5.75;;
69463;SDS011;56665;41.106;16.688;2023-06-24T14:40:48;11.07;;;5.72;;
69463;SDS011;56665;41.106;16.688;2023-06-24T14:43:52;15.02;;;5.97;;
69463;SDS011;56665;41.106;16.688;2023-06-24T14:46:56;14.55;;;6.00;;
69463;SDS011;56665;41.106;16.688;2023-06-24T14:50:00;14.27;;;5.25;;
69463;SDS011;56665;41.106;16.688;2023-06-24T14:53:04;12.93;;;5.15;;
69463;SDS011;56665;41.106;16.688;2023-06-24T14:56:07;12.15;;;5.10;;
69463;SDS011;56665;41.106;16.688;2023-06-24T14:59:11;10.70;;;4.97;;
69463;SDS011;56665;41.106;16.688;2023-06-24T15:02:15;13.02;;;5.18;;
69463;SDS011;56665;41.106;16.688;2023-06-24T15:05:19;15.13;;;4.95;;
69463;SDS011;56665;41.106;16.688;2023-06-24T15:08:22;9.60;;;4.47;;
69463;SDS011;56665;41.106;16.688;2023-06-24T15:11:28;13.32;;;4.70;;
69463;SDS011;56665;41.106;16.688;2023-06-24T15:14:32;11.90;;;4.47;;
69463;SDS011;56665;41.106;16.688;2023-06-24T15:17:36;9.85;;;4.38;;
69463;SDS011;56665;41.106;16.688;2023-06-24T15:20:43;11.48;;;4.25;;
69463;SDS011;56665;41.106;16.688;2023-06-24T15:23:47;9.65;;;3.90;;
69463;SDS011;56665;41.106;16.688;2023-06-24T15:30:01;14.48;;;4.40;;
69463;SDS011;56665;41.106;16.688;2023-06-24T15:33:07;11.93;;;4.10;;
69463;SDS011;56665;41.106;16.688;2023-06-24T15:36:12;11.80;;;4.43;;
69463;SDS011;56665;41.106;16.688;2023-06-24T15:39:15;11.60;;;3.97;;
69463;SDS011;56665;41.106;16.688;2023-06-24T15:42:19;12.30;;;4.15;;
69463;SDS011;56665;41.106;16.688;2023-06-24T15:45:23;12.45;;;3.83;;
69463;SDS011;56665;41.106;16.688;2023-06-24T15:48:27;12.93;;;4.22;;
69463;SDS011;56665;41.106;16.688;2023-06-24T15:51:31;12.07;;;4.15;;
69463;SDS011;56665;41.106;16.688;2023-06-24T15:54:34;10.85;;;3.85;;
69463;SDS011;56665;41.106;16.688;2023-06-24T15:57:38;10.63;;;3.47;;
69463;SDS011;56665;41.106;16.688;2023-06-24T16:00:42;15.25;;;4.13;;
69463;SDS011;56665;41.106;16.688;2023-06-24T16:03:46;12.57;;;4.10;;
69463;SDS011;56665;41.106;16.688;2023-06-24T16:06:49;12.45;;;4.05;;
69463;SDS011;56665;41.106;16.688;2023-06-24T16:09:54;12.27;;;4.10;;
69463;SDS011;56665;41.106;16.688;2023-06-24T16:12:58;13.70;;;4.50;;
69463;SDS011;56665;41.106;16.688;2023-06-24T16:16:02;13.40;;;4.07;;
69463;SDS011;56665;41.106;16.688;2023-06-24T16:19:06;11.38;;;4.03;;
69463;SDS011;56665;41.106;16.688;2023-06-24T16:22:10;13.18;;;4.47;;
69463;SDS011;56665;41.106;16.688;2023-06-24T16:25:13;17.63;;;4.38;;
69463;SDS011;56665;41.106;16.688;2023-06-24T16:28:19;15.77;;;4.50;;
69463;SDS011;56665;41.106;16.688;2023-06-24T16:31:22;14.18;;;4.75;;
69463;SDS011;56665;41.106;16.688;2023-06-24T16:34:26;14.98;;;5.18;;
69463;SDS011;56665;41.106;16.688;2023-06-24T16:37:30;11.90;;;4.20;;
69463;SDS011;56665;41.106;16.688;2023-06-24T16:40:34;14.40;;;5.00;;
69463;SDS011;56665;41.106;16.688;2023-06-24T16:43:37;12.70;;;4.75;;
69463;SDS011;56665;41.106;16.688;2023-06-24T16:46:41;15.02;;;4.20;;
69463;SDS011;56665;41.106;16.688;2023-06-24T16:49:45;11.98;;;4.28;;
69463;SDS011;56665;41.106;16.688;2023-06-24T16:52:51;11.63;;;4.20;;
69463;SDS011;56665;41.106;16.688;2023-06-24T16:55:55;15.05;;;4.75;;
69463;SDS011;56665;41.106;16.688;2023-06-24T16:58:59;11.07;;;4.95;;
69463;SDS011;56665;41.106;16.688;2023-06-24T17:02:03;14.13;;;4.57;;
69463;SDS011;56665;41.106;16.688;2023-06-24T17:05:06;12.95;;;3.90;;
69463;SDS011;56665;41.106;16.688;2023-06-24T17:08:10;12.00;;;4.15;;
69463;SDS011;56665;41.106;16.688;2023-06-24T17:11:15;12.27;;;3.88;;
69463;SDS011;56665;41.106;16.688;2023-06-24T17:14:19;13.02;;;3.80;;
69463;SDS011;56665;41.106;16.688;2023-06-24T17:17:23;10.60;;;3.92;;
69463;SDS011;56665;41.106;16.688;2023-06-24T17:20:26;9.95;;;3.50;;
69463;SDS011;56665;41.106;16.688;2023-06-24T17:23:30;10.73;;;3.78;;
69463;SDS011;56665;41.106;16.688;2023-06-24T17:26:34;14.07;;;3.45;;
69463;SDS011;56665;41.106;16.688;2023-06-24T17:29:37;10.30;;;3.50;;
69463;SDS011;56665;41.106;16.688;2023-06-24T17:32:41;7.90;;;3.50;;
69463;SDS011;56665;41.106;16.688;2023-06-24T17:35:45;10.10;;;4.00;;
69463;SDS011;56665;41.106;16.688;2023-06-24T17:38:49;10.80;;;3.53;;
69463;SDS011;56665;41.106;16.688;2023-06-24T17:41:52;14.18;;;3.90;;
69463;SDS011;56665;41.106;16.688;2023-06-24T17:44:56;9.57;;;3.70;;
69463;SDS011;56665;41.106;16.688;2023-06-24T17:48:00;12.65;;;3.97;;
69463;SDS011;56665;41.106;16.688;2023-06-24T17:51:03;10.90;;;3.80;;
69463;SDS011;56665;41.106;16.688;2023-06-24T17:54:09;11.48;;;3.90;;
69463;SDS011;56665;41.106;16.688;2023-06-24T17:57:13;8.65;;;3.70;;
69463;SDS011;56665;41.106;16.688;2023-06-24T18:00:16;12.57;;;3.38;;
69463;SDS011;56665;41.106;16.688;2023-06-24T18:03:20;13.07;;;3.80;;
69463;SDS011;56665;41.106;16.688;2023-06-24T18:06:26;9.15;;;3.75;;
69463;SDS011;56665;41.106;16.688;2023-06-24T18:09:30;11.43;;;4.63;;
69463;SDS011;56665;41.106;16.688;2023-06-24T18:12:34;14.20;;;4.32;;
69463;SDS011;56665;41.106;16.688;2023-06-24T18:15:39;15.77;;;4.38;;
69463;SDS011;56665;41.106;16.688;2023-06-24T18:18:43;13.50;;;4.03;;
69463;SDS011;56665;41.106;16.688;2023-06-24T18:21:47;16.75;;;4.50;;
69463;SDS011;56665;41.106;16.688;2023-06-24T18:24:51;13.57;;;4.28;;